CDT,Max TemperatureF,Mean TemperatureF,Min TemperatureF,Max Dew PointF,MeanDew PointF,Min DewpointF,Max Humidity, Mean Humidity, Min Humidity, Max Sea Level PressureIn, Mean Sea Level PressureIn, Min Sea Level PressureIn, Max VisibilityMiles, Mean VisibilityMiles, Min VisibilityMiles, Max Wind SpeedMPH, Mean Wind SpeedMPH, Max Gust SpeedMPH,PrecipitationIn, CloudCover, Events, WindDirDegrees
2013-5-1,83,69,55,63,58,54,100,70,40,30.12,30.09,30.01,10,8,6,12,4,22,0.00,0,,128
2013-5-2,81,71,61,62,60,57,93,69,45,30.14,30.08,30.03,9,7,5,17,6,21,0.00,3,,173
2013-5-3,76,69,62,62,58,53,93,71,49,30.02,29.92,29.81,10,7,2,30,11,47,0.08,6,Rain-Thunderstorm,136
2013-5-4,65,58,50,55,52,48,100,84,67,30.02,29.95,29.86,10,4,2,18,6,22,0.98,8,Rain,177
2013-5-5,59,56,53,57,54,51,100,93,86,29.98,29.92,29.89,10,5,1,16,11,23,0.42,8,Rain,52
2013-5-6,68,61,53,57,55,52,100,84,68,29.96,29.91,29.87,10,8,2,18,10,22,0.01,7,Rain,27
2013-5-7,77,67,57,60,56,53,93,70,46,30.01,29.97,29.94,10,8,2,15,4,17,0.17,6,Rain,19
2013-5-8,80,68,55,61,56,51,100,68,36,30.04,29.99,29.96,10,5,0,10,2,12,T,1,Fog-Rain,307
2013-5-9,79,68,56,64,60,53,93,72,50,30.01,29.95,29.86,10,6,1,25,9,33,0.26,5,Rain-Thunderstorm,178
2013-5-10,71,63,54,64,59,52,87,83,78,29.97,29.88,29.83,9,6,2,18,8,22,0.15,7,Rain-Thunderstorm,284
2013-5-11,69,58,46,53,46,33,89,63,36,30.11,29.99,29.93,10,6,2,28,11,36,T,5,Rain,324
2013-5-12,60,51,41,37,32,28,79,55,31,30.19,30.16,30.11,10,10,10,22,10,25,0.00,0,,305
2013-5-13,68,54,40,44,36,30,85,56,26,30.24,30.18,30.12,10,10,8,17,5,28,0.00,0,,275
2013-5-14,87,69,50,59,51,39,71,54,37,30.10,29.94,29.83,10,9,5,26,14,33,0.00,0,,191
2013-5-15,90,79,67,61,58,55,78,58,37,29.95,29.89,29.85,10,8,6,23,14,29,0.00,0,,228
2013-5-16,72,68,63,66,62,56,93,81,68,30.01,29.95,29.86,9,4,0,33,7,51,2.30,6,Fog-Rain-Thunderstorm,213
2013-5-17,76,70,63,64,62,61,93,79,64,30.02,29.99,29.97,7,4,1,22,6,29,0.00,5,,144
2013-5-18,78,71,64,66,64,61,93,78,62,30.04,30.00,29.94,6,4,2,9,3,14,0.00,6,,85
2013-5-19,87,75,62,72,66,61,100,78,55,29.96,29.92,29.82,7,2,0,15,8,20,0.00,1,Fog,150
2013-5-20,89,80,71,70,68,65,84,65,46,29.94,29.88,29.81,8,6,5,23,14,30,0.00,2,,194
2013-5-21,81,73,64,68,64,62,93,76,58,29.95,29.84,29.77,10,8,2,33,13,44,0.52,4,Rain-Thunderstorm,186
2013-5-22,79,72,64,64,61,56,93,69,45,29.83,29.77,29.73,10,10,5,24,13,31,0.07,5,Rain,212
2013-5-23,67,58,48,57,53,41,87,75,63,30.22,30.01,29.84,10,9,2,23,13,31,0.01,7,Rain,304
2013-5-24,70,56,42,48,41,35,83,57,31,30.38,30.32,30.24,10,10,8,13,5,20,0.00,0,,1
2013-5-25,69,58,47,49,46,43,93,68,42,30.39,30.30,30.21,10,9,6,16,6,21,0.03,4,Rain,54
2013-5-26,74,64,54,58,54,48,89,71,53,30.29,30.21,30.09,10,8,3,15,7,20,0.07,5,Rain,109
2013-5-27,87,73,59,64,61,54,87,65,42,30.09,29.98,29.88,10,7,0,30,12,39,0.45,4,Fog-Rain-Thunderstorm,186
2013-5-28,85,75,65,68,64,61,87,69,51,29.97,29.92,29.85,10,8,5,37,16,45,0.01,1,,193
2013-5-29,88,77,65,65,61,57,84,60,36,30.04,29.99,29.94,10,9,8,24,12,31,0.00,0,,182
2013-5-30,88,80,71,72,67,63,79,65,50,30.03,29.98,29.92,10,7,1,32,15,47,0.17,4,Rain-Thunderstorm,175
2013-5-31,81,72,63,70,65,61,93,81,69,30.01,29.95,29.85,10,6,0,36,12,46,1.63,7,Fog-Rain-Thunderstorm,180